createdAt,value
2022-09-06T00:00:28.413Z,97995.53
2022-09-06T00:02:55.433Z,97988.09
2022-09-06T00:05:25.793Z,97984.94
2022-09-06T00:07:52.450Z,97989.97
2022-09-06T00:10:24.711Z,97996.59
2022-09-06T00:12:51.265Z,97992.66
2022-09-06T00:15:24.459Z,97993.44
2022-09-06T00:17:51.709Z,97996.22
2022-09-06T00:20:18.296Z,97993.13
2022-09-06T00:22:46.517Z,97986.09
2022-09-06T00:25:13.068Z,97992.44
2022-09-06T00:27:44.021Z,97997.56
2022-09-06T00:30:11.285Z,98002.19
2022-09-06T00:32:37.809Z,98009.56
2022-09-06T00:35:05.658Z,97997.00
2022-09-06T00:37:38.313Z,98005.13
2022-09-06T00:40:05.298Z,98001.63
2022-09-06T00:42:31.837Z,98007.44
2022-09-06T00:44:59.129Z,98008.25
2022-09-06T00:47:27.351Z,98008.25
2022-09-06T00:49:57.184Z,98007.06
2022-09-06T00:52:27.228Z,98016.88
2022-09-06T00:54:54.578Z,98012.63
2022-09-06T00:57:21.448Z,98017.78
2022-09-06T00:59:50.493Z,98016.22
2022-09-06T01:02:17.116Z,98020.16
2022-09-06T01:04:45.744Z,98018.53
2022-09-06T01:07:35.802Z,98025.97
2022-09-06T01:10:40.742Z,98020.56
2022-09-06T01:13:22.769Z,98023.25
2022-09-06T01:16:07.567Z,98021.66
2022-09-06T01:18:45.631Z,98020.03
2022-09-06T01:21:21.452Z,98025.38
2022-09-06T01:24:11.451Z,98026.91
2022-09-06T01:27:15.190Z,98020.66
2022-09-06T01:29:45.726Z,98024.25
2022-09-06T01:32:12.249Z,98031.31
2022-09-06T01:34:45.522Z,98025.09
2022-09-06T01:37:18.173Z,98021.66
2022-09-06T01:39:44.784Z,98020.16
2022-09-06T01:42:25.900Z,98023.28
2022-09-06T01:44:58.428Z,98024.94
2022-09-06T01:47:31.343Z,98025.75
2022-09-06T01:50:06.721Z,98021.53
2022-09-06T01:52:59.396Z,98027.41
2022-09-06T01:55:50.638Z,98035.28
2022-09-06T01:58:41.904Z,98031.84
2022-09-06T02:01:14.335Z,98036.09
2022-09-06T02:04:00.559Z,98027.06
2022-09-06T02:06:29.644Z,98027.78
2022-09-06T02:09:06.803Z,98028.25
2022-09-06T02:11:42.114Z,98035.38
2022-09-06T02:14:18.570Z,98033.44
2022-09-06T02:16:48.525Z,98029.91
2022-09-06T02:19:41.407Z,98029.91
2022-09-06T02:22:12.847Z,98045.16
2022-09-06T02:24:42.671Z,98044.38
2022-09-06T02:27:12.095Z,98047.13
2022-09-06T02:29:41.398Z,98046.31
2022-09-06T02:32:17.180Z,98041.66
2022-09-06T02:34:46.310Z,98041.56
2022-09-06T02:37:16.960Z,98046.31
2022-09-06T02:39:52.110Z,98036.94
2022-09-06T02:42:18.962Z,98038.50
2022-09-06T02:44:45.569Z,98043.97
2022-09-06T02:47:12.386Z,98035.03
2022-09-06T02:49:39.253Z,98039.38
2022-09-06T02:52:08.072Z,98033.16
2022-09-06T02:54:34.865Z,98023.03
2022-09-06T02:57:01.506Z,98009.06
2022-09-06T02:59:28.036Z,98010.28
2022-09-06T03:01:54.849Z,98008.81
2022-09-06T03:04:21.699Z,98010.81
2022-09-06T03:06:48.264Z,98004.22
2022-09-06T03:09:14.984Z,98012.06
2022-09-06T03:11:41.515Z,98008.97
2022-09-06T03:14:08.028Z,98016.06
2022-09-06T03:16:36.698Z,98006.31
2022-09-06T03:19:03.308Z,98007.09
2022-09-06T03:21:32.419Z,98007.94
2022-09-06T03:24:01.162Z,97998.94
2022-09-06T03:26:32.857Z,98004.84
2022-09-06T03:28:59.391Z,98000.97
2022-09-06T03:31:25.957Z,98001.78
2022-09-06T03:33:56.971Z,97998.00
2022-09-06T03:36:23.561Z,97997.63
2022-09-06T03:38:51.258Z,97993.34
2022-09-06T03:41:19.520Z,98002.72
2022-09-06T03:43:46.139Z,97997.25
2022-09-06T03:46:12.784Z,98000.00
2022-09-06T03:48:43.903Z,97995.28
2022-09-06T03:51:10.475Z,97996.84
2022-09-06T03:53:37.040Z,98002.31
2022-09-06T03:56:03.796Z,97993.44
2022-09-06T03:58:31.893Z,97996.69
2022-09-06T04:01:07.847Z,97999.41
2022-09-06T04:03:35.307Z,98002.88
2022-09-06T04:06:02.324Z,97999.41
2022-09-06T04:08:29.532Z,97999.28
2022-09-06T04:10:57.518Z,98005.31
2022-09-06T04:13:25.301Z,98009.41
2022-09-06T04:16:03.425Z,98017.31
2022-09-06T04:18:31.709Z,98018.16
2022-09-06T04:20:58.776Z,98008.09
2022-09-06T04:23:29.785Z,98008.53
2022-09-06T04:25:59.130Z,98011.69
2022-09-06T04:28:27.046Z,98015.56
2022-09-06T04:31:02.143Z,98011.28
2022-09-06T04:33:31.842Z,98020.28
2022-09-06T04:36:09.852Z,98028.09
2022-09-06T04:38:42.119Z,98021.94
2022-09-06T04:41:10.934Z,98015.31
2022-09-06T04:43:37.889Z,98018.88
2022-09-06T04:46:17.825Z,98025.09
2022-09-06T04:48:46.299Z,98024.69
2022-09-06T04:51:17.244Z,98024.31
2022-09-06T04:53:44.273Z,98029.78
2022-09-06T04:56:17.651Z,98027.06
2022-09-06T04:58:45.717Z,98029.00
2022-09-06T05:01:12.719Z,98028.59
2022-09-06T05:03:41.184Z,98038.31
2022-09-06T05:06:20.906Z,98039.88
2022-09-06T05:08:48.367Z,98054.69
2022-09-06T05:11:17.099Z,98052.31
2022-09-06T05:13:45.735Z,98055.38
2022-09-06T05:16:18.505Z,98049.34
2022-09-06T05:18:45.113Z,98052.47
2022-09-06T05:21:11.670Z,98050.63
2022-09-06T05:23:40.256Z,98059.41
2022-09-06T05:26:06.808Z,98057.19
2022-09-06T05:28:35.753Z,98054.72
2022-09-06T05:31:08.729Z,98051.88
2022-09-06T05:33:35.526Z,98052.91
2022-09-06T05:36:06.095Z,98057.66
2022-09-06T05:38:32.901Z,98057.94
2022-09-06T05:40:59.646Z,98052.31
2022-09-06T05:43:26.192Z,98061.31
2022-09-06T05:45:58.288Z,98069.09
2022-09-06T05:48:24.887Z,98070.25
2022-09-06T05:51:06.731Z,98065.28
2022-09-06T05:53:34.876Z,98066.38
2022-09-06T05:56:01.549Z,98070.47
2022-09-06T05:58:34.567Z,98070.88
2022-09-06T06:01:18.934Z,98076.00
2022-09-06T06:03:57.257Z,98085.50
2022-09-06T06:06:26.261Z,98075.41
2022-09-06T06:08:52.844Z,98075.06
2022-09-06T06:11:21.337Z,98085.41
2022-09-06T06:13:47.869Z,98079.09
2022-09-06T06:16:16.874Z,98076.84
2022-09-06T06:18:47.681Z,98073.22
2022-09-06T06:21:22.012Z,98079.38
2022-09-06T06:23:58.527Z,98077.59
2022-09-06T06:26:28.256Z,98070.66
2022-09-06T06:28:55.617Z,98074.03
2022-09-06T06:31:22.888Z,98075.28
2022-09-06T06:33:50.337Z,98082.13
2022-09-06T06:36:17.049Z,98098.06
2022-09-06T06:38:45.105Z,98096.59
2022-09-06T06:41:14.259Z,98096.06
2022-09-06T06:43:40.961Z,98101.78
2022-09-06T06:46:15.864Z,98105.72
2022-09-06T06:48:43.801Z,98101.78
2022-09-06T06:51:12.984Z,98112.44
2022-09-06T06:53:41.345Z,98117.84
2022-09-06T06:56:24.375Z,98114.75
2022-09-06T06:58:53.872Z,98105.00
2022-09-06T07:01:22.119Z,98101.53
2022-09-06T07:03:49.224Z,98086.25
2022-09-06T07:06:17.301Z,98093.44
2022-09-06T07:08:44.459Z,98107.59
2022-09-06T07:11:13.202Z,98109.03
2022-09-06T07:13:44.369Z,98112.75
2022-09-06T07:16:20.086Z,98114.63
2022-09-06T07:18:48.558Z,98118.84
2022-09-06T07:24:10.084Z,98115.22
2022-09-06T07:26:40.130Z,98115.34
2022-09-06T07:29:15.175Z,98100.19
2022-09-06T07:34:35.563Z,98118.56
2022-09-06T07:37:02.099Z,98117.44
2022-09-06T07:39:28.630Z,98121.38
2022-09-06T07:41:55.453Z,98122.94
2022-09-06T07:44:22.033Z,98123.22
2022-09-06T07:46:48.713Z,98117.19
2022-09-06T07:49:17.540Z,98108.31
2022-09-06T07:51:44.454Z,98099.63
2022-09-06T07:54:30.012Z,98086.16
2022-09-06T07:56:59.227Z,98077.47
2022-09-06T07:59:25.749Z,98074.09
2022-09-06T08:01:53.322Z,98074.59
2022-09-06T08:04:20.192Z,98078.53
2022-09-06T08:09:36.011Z,98091.66
2022-09-06T08:12:07.384Z,98092.44
2022-09-06T08:14:34.973Z,98094.19
2022-09-06T08:17:02.661Z,98103.13
2022-09-06T08:19:29.214Z,98095.34
2022-09-06T08:21:56.153Z,98080.78
2022-09-06T08:24:29.025Z,98085.75
2022-09-06T08:26:55.916Z,98088.41
2022-09-06T08:29:22.454Z,98087.09
2022-09-06T08:31:49.438Z,98090.69
2022-09-06T08:34:16.080Z,98093.75
2022-09-06T08:36:43.350Z,98093.53
2022-09-06T08:39:14.784Z,98091.03
2022-09-06T08:41:58.095Z,98079.94
2022-09-06T08:44:58.437Z,98086.75
2022-09-06T08:47:25.592Z,98092.50
2022-09-06T08:49:56.812Z,98101.66
2022-09-06T08:52:26.041Z,98106.16
2022-09-06T08:55:02.124Z,98115.13
2022-09-06T08:57:46.055Z,98107.94
2022-09-06T09:00:15.771Z,98115.09
2022-09-06T09:02:51.791Z,98091.78
2022-09-06T09:05:31.894Z,98102.88
2022-09-06T09:08:18.479Z,98098.94
2022-09-06T09:10:54.417Z,98095.41
2022-09-06T09:13:34.482Z,98095.78
2022-09-06T09:16:01.572Z,98100.75
2022-09-06T09:18:38.644Z,98104.78
2022-09-06T09:21:06.130Z,98101.03
2022-09-06T09:23:35.061Z,98100.94
2022-09-06T09:26:16.922Z,98094.00
2022-09-06T09:29:11.310Z,98079.81
2022-09-06T09:31:53.622Z,98084.78
2022-09-06T09:34:33.950Z,98083.72
2022-09-06T09:40:26.054Z,98067.72
2022-09-06T09:42:56.776Z,98063.38
2022-09-06T09:45:29.702Z,98050.44
2022-09-06T09:47:56.851Z,98052.19
2022-09-06T09:50:34.184Z,98054.53
2022-09-06T09:53:11.674Z,98060.22
2022-09-06T09:55:39.245Z,98046.22
2022-09-06T09:58:08.668Z,98038.00
2022-09-06T10:00:39.979Z,98038.78
2022-09-06T10:03:20.822Z,98030.75
2022-09-06T10:06:03.767Z,98030.34
2022-09-06T10:08:35.299Z,98017.59
2022-09-06T10:11:02.181Z,98021.69
2022-09-06T10:13:30.414Z,98031.16
2022-09-06T10:16:00.816Z,98029.13
2022-09-06T10:18:37.568Z,98028.94
2022-09-06T10:21:20.738Z,98020.63
2022-09-06T10:26:55.453Z,98010.16
2022-09-06T10:29:53.175Z,98016.09
2022-09-06T10:33:01.686Z,98025.63
2022-09-06T10:35:32.237Z,98013.63
2022-09-06T10:38:01.795Z,98015.47
2022-09-06T10:40:50.522Z,98015.88
2022-09-06T10:43:20.465Z,98018.31
2022-09-06T10:45:58.280Z,98010.72
2022-09-06T10:48:35.117Z,98017.69
2022-09-06T10:51:27.567Z,98015.72
2022-09-06T10:54:01.876Z,98015.09
2022-09-06T10:56:50.143Z,98007.09
2022-09-06T11:02:14.734Z,98010.13
2022-09-06T11:07:31.991Z,98009.53
2022-09-06T11:10:07.899Z,98016.84
2022-09-06T11:12:44.635Z,98018.66
2022-09-06T11:15:14.929Z,98024.91
2022-09-06T11:17:50.546Z,98031.78
2022-09-06T11:20:31.808Z,98039.38
2022-09-06T11:23:14.869Z,98044.25
2022-09-06T11:26:05.906Z,98048.47
2022-09-06T11:28:52.359Z,98055.78
2022-09-06T11:34:32.235Z,98061.03
2022-09-06T11:37:01.086Z,98067.28
2022-09-06T11:43:01.463Z,98076.28
2022-09-06T11:45:52.634Z,98081.00
2022-09-06T11:48:34.196Z,98078.47
2022-09-06T11:51:06.704Z,98079.84
2022-09-06T11:53:50.504Z,98077.56
2022-09-06T11:56:28.394Z,98085.03
2022-09-06T11:59:06.274Z,98086.91
2022-09-06T12:01:36.204Z,98074.13
2022-09-06T12:04:07.593Z,98082.41
2022-09-06T12:06:44.127Z,98086.69
2022-09-06T12:09:31.611Z,98084.81
2022-09-06T12:12:01.274Z,98076.13
2022-09-06T12:14:33.030Z,98074.88
2022-09-06T12:16:59.525Z,98067.03
2022-09-06T12:19:52.376Z,98060.31
2022-09-06T12:22:29.403Z,98058.22
2022-09-06T12:25:50.279Z,98043.78
2022-09-06T12:28:27.447Z,98043.13
2022-09-06T12:30:54.307Z,98034.19
2022-09-06T12:33:28.607Z,98022.88
2022-09-06T12:36:14.118Z,98015.59
2022-09-06T12:38:53.434Z,98017.69
2022-09-06T12:41:25.643Z,98001.97
2022-09-06T12:43:52.720Z,97991.63
2022-09-06T12:46:19.519Z,97998.56
2022-09-06T12:49:07.903Z,98000.22
2022-09-06T12:51:36.666Z,97991.63
2022-09-06T12:54:06.855Z,97983.06
2022-09-06T12:56:34.545Z,97961.84
2022-09-06T12:59:22.063Z,97953.94
2022-09-06T13:02:07.572Z,97965.03
2022-09-06T13:04:54.243Z,97958.19
2022-09-06T13:07:24.154Z,97955.00
2022-09-06T13:09:55.239Z,97945.78
2022-09-06T13:12:33.544Z,97949.41
2022-09-06T13:15:17.223Z,97949.72
2022-09-06T13:17:44.106Z,97950.06
2022-09-06T13:20:27.509Z,97940.38
2022-09-06T13:23:07.184Z,97958.09
2022-09-06T13:25:33.762Z,97971.63
2022-09-06T13:28:04.292Z,97977.34
2022-09-06T13:30:38.052Z,97980.31
2022-09-06T13:33:06.910Z,97980.34
2022-09-06T13:35:37.244Z,97984.19
2022-09-06T13:38:23.591Z,97973.53
2022-09-06T13:41:10.940Z,97980.88
2022-09-06T13:43:45.291Z,97974.84
2022-09-06T13:46:12.123Z,97976.41
2022-09-06T13:48:44.624Z,97981.34
2022-09-06T13:51:11.870Z,97985.09
2022-09-06T13:53:38.553Z,97979.59
2022-09-06T13:56:09.047Z,97981.91
2022-09-06T13:58:38.304Z,97976.72
2022-09-06T14:01:10.031Z,97983.19
2022-09-06T14:03:47.035Z,97999.69
2022-09-06T14:06:13.530Z,98005.31
2022-09-06T14:09:03.335Z,97996.41
2022-09-06T14:11:26.847Z,97992.31
2022-09-06T14:13:55.404Z,98001.63
2022-09-06T14:16:22.023Z,98004.47
2022-09-06T14:18:49.145Z,97989.31
2022-09-06T14:21:16.609Z,97978.25
2022-09-06T14:23:48.284Z,97988.75
2022-09-06T14:26:15.608Z,97977.63
2022-09-06T14:28:45.907Z,97980.66
2022-09-06T14:31:15.616Z,97952.28
2022-09-06T14:33:42.823Z,97957.72
2022-09-06T14:36:12.992Z,97957.66
2022-09-06T14:38:40.831Z,97971.47
2022-09-06T14:41:09.036Z,97970.44
2022-09-06T14:43:36.572Z,97952.94
2022-09-06T14:46:14.350Z,97925.78
2022-09-06T14:48:42.991Z,97907.50
2022-09-06T14:51:25.660Z,97920.59
2022-09-06T14:53:55.242Z,97890.63
2022-09-06T14:56:23.029Z,97889.69
2022-09-06T14:58:51.416Z,97902.38
2022-09-06T15:01:24.954Z,97914.88
2022-09-06T15:03:55.477Z,97905.88
2022-09-06T15:06:23.551Z,97929.59
2022-09-06T15:08:52.131Z,97920.03
2022-09-06T15:11:38.845Z,97927.47
2022-09-06T15:14:08.986Z,97927.41
2022-09-06T15:16:36.230Z,97919.84
2022-09-06T15:19:04.641Z,97912.59
2022-09-06T15:21:32.426Z,97912.84
2022-09-06T15:24:00.426Z,97915.03
2022-09-06T15:26:27.183Z,97908.69
2022-09-06T15:28:53.825Z,97908.69
2022-09-06T15:31:21.092Z,97912.53
2022-09-06T15:33:54.683Z,97916.91
2022-09-06T15:36:22.009Z,97905.59
2022-09-06T15:38:53.961Z,97898.75
2022-09-06T15:41:26.622Z,97904.44
2022-09-06T15:43:56.745Z,97902.03
2022-09-06T15:47:01.524Z,97918.63
2022-09-06T15:49:32.180Z,97944.53
2022-09-06T15:52:01.546Z,97978.28
2022-09-06T15:55:01.461Z,97990.97
2022-09-06T15:57:28.912Z,97960.66
2022-09-06T15:59:55.710Z,97892.59
2022-09-06T16:02:24.561Z,97843.44
2022-09-06T16:04:51.307Z,97820.91
2022-09-06T16:07:18.153Z,97838.75
2022-09-06T16:09:45.532Z,97846.97
2022-09-06T16:12:12.333Z,97846.16
2022-09-06T16:14:38.997Z,97851.47
2022-09-06T16:17:07.528Z,97848.47
2022-09-06T16:19:34.181Z,97830.97
2022-09-06T16:22:01.160Z,97827.91
2022-09-06T16:24:28.465Z,97829.69
2022-09-06T16:26:55.168Z,97817.53
2022-09-06T16:29:21.761Z,97817.44
2022-09-06T16:31:56.929Z,97798.91
2022-09-06T16:34:23.555Z,97785.53
2022-09-06T16:36:50.210Z,97779.97
2022-09-06T16:39:16.931Z,97781.34
2022-09-06T16:41:45.789Z,97786.63
2022-09-06T16:44:17.175Z,97784.13
2022-09-06T16:46:48.100Z,97783.56
2022-09-06T16:49:17.217Z,97776.78
2022-09-06T16:51:44.239Z,97779.75
2022-09-06T16:54:15.834Z,97766.81
2022-09-06T16:56:43.153Z,97770.44
2022-09-06T16:59:10.970Z,97773.69
2022-09-06T17:01:41.778Z,97767.22
2022-09-06T17:04:09.641Z,97774.78
2022-09-06T17:06:45.930Z,97774.53
2022-09-06T17:09:15.532Z,97764.09
2022-09-06T17:11:42.781Z,97767.44
2022-09-06T17:14:09.598Z,97764.53
2022-09-06T17:16:54.764Z,97760.81
2022-09-06T17:19:23.673Z,97764.94
2022-09-06T17:21:50.787Z,97768.97
2022-09-06T17:24:17.411Z,97771.03
2022-09-06T17:26:43.947Z,97761.03
2022-09-06T17:29:10.942Z,97758.38
2022-09-06T17:31:38.214Z,97766.38
2022-09-06T17:34:05.981Z,97769.63
2022-09-06T17:36:33.874Z,97756.78
2022-09-06T17:39:13.976Z,97763.13
2022-09-06T17:41:45.715Z,97765.19
2022-09-06T17:44:23.606Z,97767.22
2022-09-06T17:47:11.335Z,97761.50
2022-09-06T17:49:39.393Z,97766.28
2022-09-06T17:52:05.957Z,97762.00
2022-09-06T17:54:32.566Z,97762.09
2022-09-06T17:56:59.291Z,97763.78
2022-09-06T17:59:25.906Z,97759.75
2022-09-06T18:01:52.545Z,97774.91
2022-09-06T18:04:19.521Z,97783.78
2022-09-06T18:06:48.018Z,97781.69
2022-09-06T18:09:17.268Z,97773.00
2022-09-06T18:11:48.386Z,97772.06
2022-09-06T18:14:18.114Z,97774.56
2022-09-06T18:16:49.283Z,97775.47
2022-09-06T18:19:19.419Z,97772.53
2022-09-06T18:21:46.870Z,97776.19
2022-09-06T18:24:16.505Z,97776.72
2022-09-06T18:26:45.276Z,97777.63
2022-09-06T18:29:14.893Z,97783.94
2022-09-06T18:31:41.794Z,97783.16
2022-09-06T18:34:09.023Z,97781.53
2022-09-06T18:36:38.780Z,97788.63
2022-09-06T18:39:06.291Z,97784.78
2022-09-06T18:41:54.819Z,97779.63
2022-09-06T18:44:22.407Z,97783.94
2022-09-06T18:46:50.002Z,97786.66
2022-09-06T18:49:19.192Z,97787.84
2022-09-06T18:51:46.027Z,97782.03
2022-09-06T18:54:13.624Z,97778.94
2022-09-06T18:56:42.844Z,97764.50
2022-09-06T18:59:10.845Z,97770.72
2022-09-06T19:01:37.596Z,97784.78
2022-09-06T19:04:05.535Z,97782.88
2022-09-06T19:06:35.350Z,97782.88
2022-09-06T19:09:06.106Z,97788.69
2022-09-06T19:11:33.567Z,97795.63
2022-09-06T19:14:00.714Z,97797.59
2022-09-06T19:16:29.252Z,97794.78
2022-09-06T19:19:01.083Z,97807.25
2022-09-06T19:21:27.877Z,97805.72
2022-09-06T19:24:04.457Z,97810.38
2022-09-06T19:26:34.343Z,97801.25
2022-09-06T19:29:03.525Z,97805.09
2022-09-06T19:31:37.380Z,97809.34
2022-09-06T19:34:04.720Z,97810.03
2022-09-06T19:36:33.828Z,97808.31
2022-09-06T19:39:07.692Z,97805.00
2022-09-06T19:41:38.074Z,97804.09
2022-09-06T19:44:05.902Z,97800.34
2022-09-06T19:46:35.342Z,97807.66
2022-09-06T19:49:02.358Z,97802.38
2022-09-06T19:51:29.291Z,97801.09
2022-09-06T19:54:00.239Z,97803.41
2022-09-06T19:56:33.404Z,97806.44
2022-09-06T19:59:12.435Z,97797.78
2022-09-06T20:01:40.745Z,97797.47
2022-09-06T20:04:10.708Z,97788.81
2022-09-06T20:06:39.608Z,97791.06
2022-09-06T20:09:09.004Z,97800.78
2022-09-06T20:11:38.757Z,97800.78
2022-09-06T20:14:06.096Z,97787.47
2022-09-06T20:16:39.378Z,97790.53
2022-09-06T20:19:14.784Z,97777.63
2022-09-06T20:21:41.798Z,97779.84
2022-09-06T20:24:09.060Z,97777.38
2022-09-06T20:26:36.125Z,97784.66
2022-09-06T20:29:04.938Z,97797.94
2022-09-06T20:31:32.153Z,97793.31
2022-09-06T20:34:00.373Z,97790.31
2022-09-06T20:36:27.368Z,97784.91
2022-09-06T20:38:54.213Z,97787.72
2022-09-06T20:41:23.922Z,97785.84
2022-09-06T20:43:54.629Z,97786.94
2022-09-06T20:46:23.590Z,97791.66
2022-09-06T20:48:50.426Z,97792.84
2022-09-06T20:51:19.488Z,97792.41
2022-09-06T20:53:59.749Z,97809.13
2022-09-06T20:56:34.839Z,97792.69
2022-09-06T20:59:07.225Z,97798.84
2022-09-06T21:01:45.722Z,97814.31
2022-09-06T21:04:20.726Z,97818.94
2022-09-06T21:06:49.718Z,97855.84
2022-09-06T21:09:16.986Z,97865.66
2022-09-06T21:11:45.485Z,97883.88
2022-09-06T21:14:12.712Z,97888.38
2022-09-06T21:16:40.795Z,97879.63
2022-09-06T21:19:11.344Z,97883.72
2022-09-06T21:21:40.721Z,97864.28
2022-09-06T21:24:08.321Z,97867.84
2022-09-06T21:26:35.751Z,97861.75
2022-09-06T21:29:02.302Z,97872.47
2022-09-06T21:31:31.400Z,97862.47
2022-09-06T21:34:04.888Z,97856.34
2022-09-06T21:36:34.910Z,97847.09
2022-09-06T21:39:04.293Z,97844.09
2022-09-06T21:41:38.510Z,97834.75
2022-09-06T21:44:06.785Z,97843.84
2022-09-06T21:46:36.265Z,97840.06
2022-09-06T21:49:08.883Z,97846.88
2022-09-06T21:51:36.023Z,97834.97
2022-09-06T21:54:04.785Z,97827.66
2022-09-06T21:56:34.202Z,97840.28
2022-09-06T21:59:01.051Z,97827.09
2022-09-06T22:01:29.805Z,97827.91
2022-09-06T22:03:56.520Z,97822.03
2022-09-06T22:06:31.278Z,97820.78
2022-09-06T22:09:03.136Z,97817.56
2022-09-06T22:11:32.585Z,97815.13
2022-09-06T22:14:01.182Z,97818.00
2022-09-06T22:16:28.887Z,97813.28
2022-09-06T22:18:55.724Z,97811.25
2022-09-06T22:21:23.080Z,97812.03
2022-09-06T22:24:04.234Z,97812.03
2022-09-06T22:26:32.539Z,97813.16
2022-09-06T22:29:01.237Z,97813.72
2022-09-06T22:31:29.583Z,97809.56
2022-09-06T22:34:04.512Z,97810.69
2022-09-06T22:36:31.738Z,97816.50
2022-09-06T22:38:59.323Z,97807.09
2022-09-06T22:41:31.018Z,97809.78
2022-09-06T22:44:02.239Z,97818.25
2022-09-06T22:46:29.007Z,97821.69
2022-09-06T22:48:55.704Z,97814.69
2022-09-06T22:51:22.751Z,97803.53
2022-09-06T22:53:49.338Z,97805.56
2022-09-06T22:56:18.000Z,97807.25
2022-09-06T22:58:44.723Z,97806.91
2022-09-06T23:01:14.119Z,97800.22
2022-09-06T23:03:41.833Z,97792.66
2022-09-06T23:06:14.434Z,97788.09
2022-09-06T23:08:41.640Z,97791.25
2022-09-06T23:11:13.668Z,97792.09
2022-09-06T23:13:44.084Z,97796.31
2022-09-06T23:16:14.503Z,97793.16
2022-09-06T23:18:41.516Z,97794.59
2022-09-06T23:21:10.733Z,97788.03
2022-09-06T23:23:38.424Z,97797.78
2022-09-06T23:26:16.435Z,97795.53
2022-09-06T23:28:45.569Z,97791.75
2022-09-06T23:31:14.805Z,97788.38
2022-09-06T23:33:42.075Z,97796.38
2022-09-06T23:36:11.491Z,97793.00
2022-09-06T23:38:39.884Z,97786.88
2022-09-06T23:41:18.108Z,97781.53
2022-09-06T23:43:45.752Z,97776.63
2022-09-06T23:46:15.975Z,97780.63
2022-09-06T23:48:43.510Z,97786.56
2022-09-06T23:51:11.164Z,97791.31
2022-09-06T23:53:37.759Z,97787.44
2022-09-06T23:56:04.885Z,97782.06
2022-09-06T23:58:32.190Z,97788.38
